createdAt,value
2018-07-05T00:02:11.756Z,19.50
2018-07-05T00:04:50.899Z,19.50
2018-07-05T00:07:30.182Z,19.50
2018-07-05T00:10:09.276Z,19.50
2018-07-05T00:12:59.589Z,19.40
2018-07-05T00:15:39.226Z,19.30
2018-07-05T00:18:18.386Z,19.40
2018-07-05T00:20:57.382Z,19.30
2018-07-05T00:23:36.488Z,19.30
2018-07-05T00:26:15.724Z,19.30
2018-07-05T00:28:54.778Z,19.20
2018-07-05T00:31:33.920Z,18.90
2018-07-05T00:34:13.333Z,18.80
2018-07-05T00:36:52.370Z,18.80
2018-07-05T00:39:31.382Z,18.80
2018-07-05T00:42:10.427Z,18.90
2018-07-05T00:44:49.749Z,18.80
2018-07-05T00:47:28.875Z,18.90
2018-07-05T00:50:44.453Z,18.90
2018-07-05T00:53:24.414Z,19.00
2018-07-05T00:56:03.641Z,18.90
2018-07-05T00:58:51.461Z,18.50
2018-07-05T01:04:04.540Z,18.30
2018-07-05T01:06:43.716Z,18.20
2018-07-05T01:09:22.854Z,18.10
2018-07-05T01:12:02.221Z,18.00
2018-07-05T01:14:41.446Z,18.10
2018-07-05T01:17:20.675Z,18.10
2018-07-05T01:19:59.938Z,18.10
2018-07-05T01:22:39.175Z,17.90
2018-07-05T01:25:18.991Z,17.80
2018-07-05T01:27:58.050Z,17.70
2018-07-05T01:30:37.510Z,17.90
2018-07-05T01:33:16.764Z,17.90
2018-07-05T01:35:56.059Z,18.00
2018-07-05T01:38:35.263Z,17.90
2018-07-05T01:41:14.583Z,17.90
2018-07-05T01:43:54.747Z,17.80
2018-07-05T01:46:34.673Z,17.90
2018-07-05T01:49:14.030Z,17.90
2018-07-05T01:51:53.073Z,17.90
2018-07-05T01:54:32.430Z,17.90
2018-07-05T01:57:12.952Z,17.80
2018-07-05T01:59:53.066Z,17.80
2018-07-05T02:02:32.471Z,17.80
2018-07-05T02:05:12.395Z,17.90
2018-07-05T02:07:51.960Z,17.80
2018-07-05T02:10:32.174Z,17.90
2018-07-05T02:15:44.874Z,17.90
2018-07-05T02:18:24.101Z,17.90
2018-07-05T02:21:03.416Z,17.90
2018-07-05T02:23:42.437Z,18.00
2018-07-05T02:26:22.902Z,17.70
2018-07-05T02:29:01.963Z,17.10
2018-07-05T02:31:41.091Z,17.00
2018-07-05T02:34:20.326Z,17.00
2018-07-05T02:36:59.518Z,17.00
2018-07-05T02:39:44.353Z,16.90
2018-07-05T02:42:23.460Z,16.80
2018-07-05T02:45:02.673Z,16.70
2018-07-05T02:47:41.949Z,16.90
2018-07-05T02:50:21.362Z,16.80
2018-07-05T02:53:00.561Z,17.00
2018-07-05T02:55:40.512Z,17.00
2018-07-05T02:58:19.827Z,17.10
2018-07-05T03:00:59.283Z,17.10
2018-07-05T03:03:38.493Z,17.20
2018-07-05T03:06:17.634Z,17.20
2018-07-05T03:08:57.814Z,17.20
2018-07-05T03:11:36.930Z,17.20
2018-07-05T03:14:16.369Z,17.20
2018-07-05T03:16:56.035Z,17.10
2018-07-05T03:19:35.516Z,17.10
2018-07-05T03:22:14.793Z,17.20
2018-07-05T03:24:54.100Z,17.20
2018-07-05T03:27:33.231Z,17.20
2018-07-05T03:30:12.590Z,17.20
2018-07-05T03:32:52.385Z,17.20
2018-07-05T03:35:31.519Z,17.20
2018-07-05T03:38:10.723Z,17.20
2018-07-05T03:43:25.430Z,16.90
2018-07-05T03:46:06.398Z,16.90
2018-07-05T03:48:45.496Z,16.70
2018-07-05T03:53:58.721Z,16.30
2018-07-05T03:56:37.959Z,16.20
2018-07-05T04:01:51.968Z,16.40
2018-07-05T04:07:05.289Z,16.60
2018-07-05T04:12:19.010Z,16.80
2018-07-05T04:14:58.439Z,17.00
2018-07-05T04:17:37.775Z,17.00
2018-07-05T04:20:17.188Z,17.10
2018-07-05T04:22:56.471Z,17.20
2018-07-05T04:25:35.965Z,17.30
2018-07-05T04:28:15.250Z,17.40
2018-07-05T04:30:54.817Z,17.40
2018-07-05T04:33:34.146Z,17.30
2018-07-05T04:36:13.414Z,17.40
2018-07-05T04:38:53.818Z,17.50
2018-07-05T04:44:07.010Z,17.50
2018-07-05T04:46:46.464Z,17.40
2018-07-05T04:49:25.887Z,17.30
2018-07-05T04:52:05.245Z,17.40
2018-07-05T04:54:44.968Z,17.40
2018-07-05T04:57:24.081Z,17.40
2018-07-05T05:00:03.260Z,17.40
2018-07-05T05:02:42.330Z,17.40
2018-07-05T05:05:21.488Z,17.50
2018-07-05T05:08:00.648Z,17.50
2018-07-05T05:10:40.146Z,17.60
2018-07-05T05:13:19.302Z,17.60
2018-07-05T05:15:58.551Z,17.70
2018-07-05T05:18:37.855Z,17.90
2018-07-05T05:21:17.438Z,18.00
2018-07-05T05:23:57.263Z,18.10
2018-07-05T05:26:36.718Z,18.10
2018-07-05T05:29:15.762Z,18.20
2018-07-05T05:31:55.192Z,18.30
2018-07-05T05:37:07.971Z,18.50
2018-07-05T05:39:47.308Z,18.50
2018-07-05T05:42:26.698Z,18.50
2018-07-05T05:45:06.232Z,18.60
2018-07-05T05:47:45.692Z,18.70
2018-07-05T05:50:24.825Z,18.80
2018-07-05T05:53:04.459Z,19.00
2018-07-05T05:55:43.766Z,19.10
2018-07-05T05:58:23.925Z,19.20
2018-07-05T06:01:04.275Z,19.20
2018-07-05T06:03:43.462Z,19.40
2018-07-05T06:06:23.029Z,19.50
2018-07-05T06:09:04.296Z,19.70
2018-07-05T06:11:47.290Z,19.80
2018-07-05T06:14:26.603Z,19.90
2018-07-05T06:19:40.702Z,20.20
2018-07-05T06:22:20.253Z,20.30
2018-07-05T06:24:59.270Z,20.20
2018-07-05T06:27:38.753Z,20.40
2018-07-05T06:30:18.098Z,20.50
2018-07-05T06:32:58.027Z,20.60
2018-07-05T06:35:37.449Z,20.80
2018-07-05T06:38:17.187Z,20.80
2018-07-05T06:40:56.616Z,20.80
2018-07-05T06:43:35.869Z,20.80
2018-07-05T06:46:15.901Z,21.00
2018-07-05T06:48:55.316Z,21.50
2018-07-05T06:51:34.737Z,22.00
2018-07-05T06:56:48.261Z,24.60
2018-07-05T06:59:28.553Z,24.50
2018-07-05T07:02:07.951Z,25.90
2018-07-05T07:04:47.202Z,26.80
2018-07-05T07:07:26.483Z,27.50
2018-07-05T07:10:07.151Z,28.30
2018-07-05T07:12:46.707Z,28.70
2018-07-05T07:15:25.951Z,28.40
2018-07-05T07:18:05.478Z,28.50
2018-07-05T07:20:45.011Z,27.60
2018-07-05T07:23:25.310Z,26.90
2018-07-05T07:28:39.123Z,28.20
2018-07-05T07:31:18.966Z,29.30
2018-07-05T07:33:58.412Z,29.50
2018-07-05T07:36:37.563Z,29.90
2018-07-05T07:41:48.173Z,30.90
2018-07-05T07:44:17.733Z,30.10
2018-07-05T07:46:45.270Z,30.00
2018-07-05T07:49:12.314Z,30.50
2018-07-05T07:51:41.339Z,30.70
2018-07-05T07:54:08.356Z,28.70
2018-07-05T07:56:35.104Z,29.30
2018-07-05T07:59:02.346Z,29.90
2018-07-05T08:01:30.325Z,31.10
2018-07-05T08:03:57.356Z,31.20
2018-07-05T08:06:24.141Z,31.90
2018-07-05T08:08:51.737Z,31.50
2018-07-05T08:11:18.990Z,31.50
2018-07-05T08:13:46.794Z,31.40
2018-07-05T08:16:17.084Z,32.30
2018-07-05T08:18:44.207Z,32.30
2018-07-05T08:21:12.215Z,32.30
2018-07-05T08:23:39.085Z,31.10
2018-07-05T08:26:06.724Z,29.90
2018-07-05T08:28:33.574Z,29.80
2018-07-05T08:31:01.250Z,28.80
2018-07-05T08:33:28.326Z,30.30
2018-07-05T08:35:55.249Z,29.60
2018-07-05T08:38:22.634Z,30.50
2018-07-05T08:40:49.605Z,31.10
2018-07-05T08:43:16.394Z,30.90
2018-07-05T08:45:43.481Z,30.80
2018-07-05T08:48:10.887Z,31.90
2018-07-05T08:50:38.867Z,32.30
2018-07-05T08:53:07.924Z,31.80
2018-07-05T08:55:34.727Z,30.70
2018-07-05T08:58:01.561Z,32.30
2018-07-05T09:00:28.735Z,32.60
2018-07-05T09:02:55.815Z,32.50
2018-07-05T09:05:26.917Z,32.90
2018-07-05T09:07:54.063Z,32.40
2018-07-05T09:10:22.311Z,31.70
2018-07-05T09:12:49.561Z,31.20
2018-07-05T09:15:17.423Z,30.70
2018-07-05T09:17:45.603Z,30.70
2018-07-05T09:20:13.284Z,30.10
2018-07-05T09:22:41.403Z,29.70
2018-07-05T09:25:08.451Z,30.10
2018-07-05T09:27:35.732Z,29.30
2018-07-05T09:30:02.758Z,30.10
2018-07-05T09:32:29.660Z,30.40
2018-07-05T09:34:56.658Z,31.50
2018-07-05T09:37:23.777Z,31.60
2018-07-05T09:39:51.772Z,31.40
2018-07-05T09:42:20.416Z,30.50
2018-07-05T09:44:47.898Z,30.70
2018-07-05T09:47:15.802Z,30.10
2018-07-05T09:49:42.618Z,30.70
2018-07-05T09:52:09.513Z,30.00
2018-07-05T09:54:36.607Z,28.80
2018-07-05T09:57:06.204Z,28.80
2018-07-05T09:59:33.346Z,28.50
2018-07-05T10:02:00.127Z,28.40
2018-07-05T10:04:27.237Z,28.00
2018-07-05T10:06:54.053Z,27.80
2018-07-05T10:09:20.866Z,27.80
2018-07-05T10:11:48.004Z,27.80
2018-07-05T10:14:14.982Z,28.10
2018-07-05T10:16:43.186Z,28.30
2018-07-05T10:19:12.496Z,27.90
2018-07-05T10:21:39.654Z,28.40
2018-07-05T10:24:10.262Z,28.50
2018-07-05T10:26:37.322Z,28.30
2018-07-05T10:29:16.858Z,27.70
2018-07-05T10:31:56.363Z,27.60
2018-07-05T10:34:24.275Z,27.30
2018-07-05T10:36:51.520Z,27.30
2018-07-05T10:39:18.470Z,27.30
2018-07-05T10:41:58.379Z,27.60
2018-07-05T10:44:38.782Z,27.70
2018-07-05T10:47:18.199Z,27.90
2018-07-05T10:49:57.378Z,27.60
2018-07-05T10:52:37.991Z,27.40
2018-07-05T10:55:18.716Z,27.50
2018-07-05T10:57:58.051Z,27.50
2018-07-05T11:00:37.363Z,27.70
2018-07-05T11:03:17.783Z,27.80
2018-07-05T11:05:56.873Z,27.80
2018-07-05T11:08:37.388Z,28.00
2018-07-05T11:11:16.611Z,27.80
2018-07-05T11:13:57.898Z,27.90
2018-07-05T11:16:40.923Z,28.00
2018-07-05T11:19:20.168Z,27.60
2018-07-05T11:21:59.353Z,28.00
2018-07-05T11:24:38.601Z,27.70
2018-07-05T11:27:19.188Z,28.30
2018-07-05T11:29:58.363Z,28.40
2018-07-05T11:32:38.869Z,28.20
2018-07-05T11:35:19.201Z,28.50
2018-07-05T11:37:58.341Z,28.30
2018-07-05T11:40:37.634Z,28.50
2018-07-05T11:43:17.593Z,28.70
2018-07-05T11:45:56.776Z,28.70
2018-07-05T11:48:36.008Z,28.80
2018-07-05T11:51:15.337Z,28.70
2018-07-05T11:53:57.083Z,29.10
2018-07-05T11:56:38.438Z,29.20
2018-07-05T11:59:17.684Z,28.60
2018-07-05T12:01:57.438Z,28.30
2018-07-05T12:04:38.576Z,28.50
2018-07-05T12:07:18.598Z,28.50
2018-07-05T12:09:57.830Z,28.50
2018-07-05T12:12:37.320Z,28.50
2018-07-05T12:15:17.680Z,28.60
2018-07-05T12:17:58.251Z,28.90
2018-07-05T12:20:38.184Z,28.40
2018-07-05T12:23:18.593Z,28.60
2018-07-05T12:25:58.606Z,28.60
2018-07-05T12:28:37.933Z,28.70
2018-07-05T12:31:17.245Z,28.70
2018-07-05T12:33:56.803Z,28.60
2018-07-05T12:36:37.158Z,29.00
2018-07-05T12:39:21.675Z,28.70
2018-07-05T12:42:00.976Z,28.50
2018-07-05T12:44:41.833Z,28.60
2018-07-05T12:47:21.795Z,29.00
2018-07-05T12:50:01.287Z,28.80
2018-07-05T12:52:41.385Z,28.40
2018-07-05T12:55:20.987Z,28.50
2018-07-05T12:58:00.822Z,28.40
2018-07-05T13:00:40.267Z,28.20
2018-07-05T13:03:21.910Z,27.80
2018-07-05T13:06:01.437Z,27.70
2018-07-05T13:08:41.458Z,27.80
2018-07-05T13:11:20.755Z,27.60
2018-07-05T13:14:00.242Z,27.50
2018-07-05T13:16:39.528Z,27.20
2018-07-05T13:19:21.848Z,27.00
2018-07-05T13:22:00.984Z,27.10
2018-07-05T13:24:40.323Z,26.90
2018-07-05T13:27:19.818Z,26.40
2018-07-05T13:29:59.753Z,26.00
2018-07-05T13:32:39.138Z,26.10
2018-07-05T13:35:18.212Z,25.90
2018-07-05T13:37:57.179Z,25.60
2018-07-05T13:40:37.478Z,25.90
2018-07-05T13:43:18.565Z,25.70
2018-07-05T13:45:57.518Z,25.90
2018-07-05T13:48:37.218Z,26.10
2018-07-05T13:51:17.022Z,26.00
2018-07-05T13:53:56.723Z,26.30
2018-07-05T13:56:37.044Z,26.40
2018-07-05T13:59:17.729Z,26.40
2018-07-05T14:01:57.089Z,25.80
2018-07-05T14:07:10.040Z,25.80
2018-07-05T14:09:50.062Z,26.10
2018-07-05T14:12:29.238Z,26.20
2018-07-05T14:15:08.631Z,26.10
2018-07-05T14:17:47.917Z,25.80
2018-07-05T14:20:27.630Z,25.40
2018-07-05T14:23:07.503Z,26.00
2018-07-05T14:25:46.618Z,26.00
2018-07-05T14:28:28.791Z,26.40
2018-07-05T14:31:07.857Z,26.70
2018-07-05T14:33:50.293Z,26.70
2018-07-05T14:36:33.892Z,27.00
2018-07-05T14:39:13.890Z,27.20
2018-07-05T14:41:53.018Z,27.10
2018-07-05T14:44:32.090Z,27.00
2018-07-05T14:47:11.238Z,26.80
2018-07-05T14:49:52.899Z,26.90
2018-07-05T14:52:32.553Z,26.90
2018-07-05T14:55:11.835Z,26.70
2018-07-05T14:57:51.107Z,26.30
2018-07-05T15:00:30.095Z,26.40
2018-07-05T15:03:09.222Z,26.30
2018-07-05T15:05:48.406Z,26.30
2018-07-05T15:08:29.146Z,26.00
2018-07-05T15:11:08.864Z,25.90
2018-07-05T15:13:47.950Z,25.90
2018-07-05T15:16:27.255Z,25.70
2018-07-05T15:19:06.716Z,25.80
2018-07-05T15:24:22.693Z,25.60
2018-07-05T15:27:02.114Z,25.60
2018-07-05T15:29:41.419Z,25.80
2018-07-05T15:32:21.370Z,25.60
2018-07-05T15:35:00.439Z,25.80
2018-07-05T15:37:39.772Z,26.10
2018-07-05T15:40:19.813Z,26.20
2018-07-05T15:42:58.913Z,26.00
2018-07-05T15:45:38.052Z,26.30
2018-07-05T15:48:17.239Z,25.60
2018-07-05T15:50:56.350Z,25.90
2018-07-05T15:53:38.845Z,25.90
2018-07-05T15:56:18.070Z,26.00
2018-07-05T15:58:57.342Z,26.10
2018-07-05T16:01:36.590Z,25.90
2018-07-05T16:04:16.041Z,25.70
2018-07-05T16:06:55.830Z,26.10
2018-07-05T16:09:35.826Z,26.00
2018-07-05T16:12:16.561Z,26.10
2018-07-05T16:14:55.694Z,26.10
2018-07-05T16:17:34.826Z,25.90
2018-07-05T16:20:13.893Z,25.60
2018-07-05T16:22:53.366Z,25.20
2018-07-05T16:25:32.580Z,25.40
2018-07-05T16:28:11.771Z,25.20
2018-07-05T16:30:51.105Z,25.20
2018-07-05T16:33:33.353Z,25.20
2018-07-05T16:36:12.618Z,24.70
2018-07-05T16:38:51.724Z,25.00
2018-07-05T16:41:31.024Z,25.00
2018-07-05T16:44:11.617Z,25.10
2018-07-05T16:46:50.801Z,24.80
2018-07-05T16:49:29.993Z,24.70
2018-07-05T16:52:10.081Z,24.70
2018-07-05T16:54:49.654Z,24.60
2018-07-05T16:57:29.101Z,24.60
2018-07-05T17:00:08.410Z,24.80
2018-07-05T17:02:47.778Z,24.80
2018-07-05T17:05:26.825Z,24.90
2018-07-05T17:08:08.280Z,24.90
2018-07-05T17:10:47.413Z,24.80
2018-07-05T17:13:28.338Z,24.40
2018-07-05T17:16:07.615Z,24.50
2018-07-05T17:18:46.885Z,24.60
2018-07-05T17:21:27.441Z,24.10
2018-07-05T17:24:07.258Z,23.90
2018-07-05T17:26:46.412Z,24.00
2018-07-05T17:29:27.062Z,23.80
2018-07-05T17:32:08.194Z,23.70
2018-07-05T17:34:47.432Z,23.80
2018-07-05T17:37:27.263Z,23.80
2018-07-05T17:40:06.360Z,23.90
2018-07-05T17:42:45.578Z,23.90
2018-07-05T17:45:24.627Z,23.80
2018-07-05T17:48:03.875Z,23.80
2018-07-05T17:50:43.050Z,23.90
2018-07-05T17:53:23.215Z,23.60
2018-07-05T17:56:03.451Z,23.60
2018-07-05T17:58:42.777Z,23.50
2018-07-05T18:01:22.134Z,23.50
2018-07-05T18:04:01.327Z,23.60
2018-07-05T18:06:42.612Z,23.50
2018-07-05T18:09:21.756Z,23.30
2018-07-05T18:12:02.181Z,23.30
2018-07-05T18:14:42.735Z,23.40
2018-07-05T18:17:23.719Z,23.30
2018-07-05T18:20:03.795Z,23.40
2018-07-05T18:22:42.914Z,23.30
2018-07-05T18:25:22.420Z,23.10
2018-07-05T18:28:01.636Z,23.20
2018-07-05T18:30:40.739Z,23.30
2018-07-05T18:33:19.906Z,23.10
2018-07-05T18:35:59.686Z,23.10
2018-07-05T18:38:40.617Z,23.10
2018-07-05T18:41:19.890Z,23.10
2018-07-05T18:43:59.878Z,23.00
2018-07-05T18:49:13.132Z,23.10
2018-07-05T18:54:30.005Z,23.00
2018-07-05T18:57:09.518Z,23.00
2018-07-05T18:59:48.748Z,22.90
2018-07-05T19:02:29.054Z,22.80
2018-07-05T19:05:08.327Z,22.80
2018-07-05T19:07:48.955Z,22.80
2018-07-05T19:10:28.766Z,22.80
2018-07-05T19:13:08.656Z,22.80
2018-07-05T19:15:49.836Z,22.60
2018-07-05T19:18:28.958Z,22.50
2018-07-05T19:21:08.574Z,22.50
2018-07-05T19:23:47.617Z,22.40
2018-07-05T19:26:35.160Z,22.30
2018-07-05T19:29:19.273Z,22.30
2018-07-05T19:31:59.277Z,22.30
2018-07-05T19:34:39.193Z,22.40
2018-07-05T19:37:21.438Z,22.20
2018-07-05T19:40:01.020Z,22.20
2018-07-05T19:42:40.195Z,22.20
2018-07-05T19:45:20.247Z,22.20
2018-07-05T19:48:00.614Z,22.30
2018-07-05T19:50:39.592Z,22.30
2018-07-05T19:53:19.590Z,22.30
2018-07-05T19:56:03.705Z,22.30
2018-07-05T19:58:45.515Z,22.40
2018-07-05T20:01:26.396Z,22.40
2018-07-05T20:04:05.853Z,22.40
2018-07-05T20:06:44.953Z,22.40
2018-07-05T20:09:24.821Z,22.30
2018-07-05T20:12:05.683Z,22.30
2018-07-05T20:14:45.087Z,22.20
2018-07-05T20:17:25.159Z,22.10
2018-07-05T20:20:04.427Z,22.10
2018-07-05T20:22:43.752Z,22.10
2018-07-05T20:25:24.165Z,22.10
2018-07-05T20:28:18.069Z,22.00
2018-07-05T20:30:59.790Z,22.00
2018-07-05T20:33:46.770Z,22.00
2018-07-05T20:39:00.268Z,22.10
2018-07-05T20:41:44.127Z,22.10
2018-07-05T20:44:23.426Z,22.00
2018-07-05T20:47:03.770Z,21.80
2018-07-05T20:49:43.606Z,21.80
2018-07-05T20:52:22.800Z,21.90
2018-07-05T20:55:03.757Z,21.90
2018-07-05T20:57:43.790Z,21.80
2018-07-05T21:00:22.944Z,21.80
2018-07-05T21:03:02.128Z,21.70
2018-07-05T21:05:43.350Z,21.80
2018-07-05T21:08:24.822Z,21.70
2018-07-05T21:11:04.212Z,21.80
2018-07-05T21:13:44.995Z,21.80
2018-07-05T21:16:26.106Z,21.90
2018-07-05T21:19:05.751Z,21.90
2018-07-05T21:21:44.999Z,21.90
2018-07-05T21:24:25.934Z,21.80
2018-07-05T21:27:05.572Z,21.70
2018-07-05T21:29:46.607Z,21.70
2018-07-05T21:32:26.026Z,21.70
2018-07-05T21:35:05.266Z,21.70
2018-07-05T21:37:44.513Z,21.70
2018-07-05T21:40:23.885Z,21.50
2018-07-05T21:43:04.291Z,21.50
2018-07-05T21:45:43.449Z,21.50
2018-07-05T21:48:22.914Z,21.50
2018-07-05T21:51:05.374Z,21.50
2018-07-05T21:53:44.615Z,21.40
2018-07-05T21:56:24.860Z,21.30
2018-07-05T21:59:04.760Z,21.30
2018-07-05T22:01:51.361Z,21.20
2018-07-05T22:04:30.322Z,21.20
2018-07-05T22:07:18.017Z,21.20
2018-07-05T22:09:57.361Z,21.30
2018-07-05T22:12:38.134Z,21.30
2018-07-05T22:15:19.337Z,21.30
2018-07-05T22:18:05.407Z,21.30
2018-07-05T22:20:50.059Z,21.30
2018-07-05T22:23:34.852Z,21.20
2018-07-05T22:26:51.230Z,21.20
2018-07-05T22:29:36.634Z,21.30
2018-07-05T22:32:17.090Z,21.20
2018-07-05T22:34:56.028Z,21.20
2018-07-05T22:37:36.338Z,21.00
2018-07-05T22:43:02.568Z,20.90
2018-07-05T22:45:41.691Z,20.80
2018-07-05T22:48:23.558Z,20.80
2018-07-05T22:51:04.327Z,20.90
2018-07-05T22:53:43.679Z,20.70
2018-07-05T22:56:23.953Z,20.70
2018-07-05T22:59:04.091Z,20.80
2018-07-05T23:04:18.042Z,20.70
2018-07-05T23:06:57.242Z,20.80
2018-07-05T23:09:36.761Z,20.80
2018-07-05T23:12:16.058Z,20.70
2018-07-05T23:14:55.459Z,20.70
2018-07-05T23:17:35.103Z,20.80
2018-07-05T23:20:15.168Z,20.80
2018-07-05T23:22:54.822Z,20.80
2018-07-05T23:25:33.926Z,20.90
2018-07-05T23:28:13.308Z,20.90
2018-07-05T23:33:28.517Z,20.90
2018-07-05T23:36:07.578Z,20.80
2018-07-05T23:38:47.316Z,20.70
2018-07-05T23:41:26.449Z,20.80
2018-07-05T23:44:05.634Z,20.80
2018-07-05T23:46:45.018Z,20.80
2018-07-05T23:49:24.213Z,20.70
2018-07-05T23:52:03.357Z,20.70
2018-07-05T23:54:42.562Z,20.60
2018-07-05T23:59:58.830Z,20.50
